Biddle, Montana
Current Conditions -  °F | °C
As of 5:53 PM on Monday 26 Jan 2015 (Local Time) from KGCC Reporting Station
Clear Clear  
Wind Chill: 51°   Ceiling: Unl
Heat Index: 51°   Visibility: 10mi
Dew Point: 30°   Wind: 18mph
Humidity: 44%   Direction: 230°SW
Pressure: 30.05"   Gusts: NA
Location:  45.1°N, 105.35°W
Report Text: KGCC 270053Z AUTO 23016KT 10SM CLR 11/M01 A3005 RMK AO2 SLP171 T01061011 TSNO
Loading
Personal Weather Stations






























Interactive Weather Map New forecast layout! Learn more

10-Day Weather Forecast

Advertisements
Track Severe Weather on mobile